Time;durP1;ratioP1;P1;durP2;ratioP2;P2;SDS_P1;SDS_P2;PMS_P1;PMS_P2;Temp;Humidity;BMP_temperature;BMP_pressure;BME280_temperature;BME280_humidity;BME280_pressure;Samples;Min_cycle;Max_cycle;Signal;HPM_P1;HPM_P2
2022/05/13 00:00:28;;;;;;;5.25;2.22;;;11.60;99.90;;;;;;5012517;28;20479;-80
2022/05/13 00:02:54;;;;;;;4.30;2.08;;;11.60;99.90;;;;;;5012666;28;20042;-78
2022/05/13 00:05:20;;;;;;;5.13;2.00;;;11.50;99.90;;;;;;5012147;28;20097;-78
2022/05/13 00:07:46;;;;;;;5.13;2.28;;;11.40;99.90;;;;;;4995501;28;20570;-77
2022/05/13 00:10:12;;;;;;;6.28;2.03;;;11.30;99.90;;;;;;5012626;28;20137;-78
2022/05/13 00:12:43;;;;;;;6.43;2.25;;;11.30;99.90;;;;;;4988828;28;20149;-78
2022/05/13 00:15:14;;;;;;;7.03;1.90;;;11.20;99.90;;;;;;4993233;28;20475;-77
2022/05/13 00:17:40;;;;;;;3.95;1.88;;;11.20;99.90;;;;;;5011014;28;20053;-77
2022/05/13 00:20:07;;;;;;;5.28;1.95;;;11.10;99.90;;;;;;5012075;28;20049;-77
2022/05/13 00:22:33;;;;;;;4.30;1.95;;;11.10;99.90;;;;;;5010674;28;20546;-78
2022/05/13 00:24:59;;;;;;;3.47;1.98;;;11.10;99.90;;;;;;5012681;28;20129;-78
2022/05/13 00:27:25;;;;;;;5.53;2.10;;;11.00;99.90;;;;;;5011251;28;20049;-78
2022/05/13 00:29:51;;;;;;;;;;;11.00;99.90;;;;;;5012587;28;20053;-78
2022/05/13 00:32:17;;;;;;;3.03;2.10;;;11.00;99.90;;;;;;5012349;28;19921;-78
2022/05/13 00:34:43;;;;;;;3.72;2.17;;;11.10;99.90;;;;;;5011665;28;20050;-78
2022/05/13 00:37:09;;;;;;;3.67;2.20;;;11.20;99.90;;;;;;5010813;28;20108;-78
2022/05/13 00:39:35;;;;;;;5.25;1.98;;;11.20;99.90;;;;;;5011375;28;20061;-78
2022/05/13 00:42:14;;;;;;;9.32;2.40;;;11.20;99.90;;;;;;4994400;28;20050;-78
2022/05/13 00:44:40;;;;;;;5.90;1.88;;;11.20;99.90;;;;;;4983451;28;20141;-79
2022/05/13 00:47:06;;;;;;;;;;;11.20;99.90;;;;;;5009318;28;20086;-78
2022/05/13 00:49:33;;;;;;;3.45;1.95;;;11.20;99.90;;;;;;4992342;28;19977;-81
2022/05/13 00:52:00;;;;;;;;;;;11.30;99.90;;;;;;4992131;28;20042;-78
2022/05/13 00:54:27;;;;;;;6.53;2.22;;;11.40;99.90;;;;;;4976462;28;19922;-78
2022/05/13 00:56:52;;;;;;;6.30;2.30;;;11.40;99.90;;;;;;4990705;28;20101;-79
2022/05/13 00:59:21;;;;;;;3.95;1.63;;;11.50;99.90;;;;;;5011651;28;20049;-78
2022/05/13 01:01:48;;;;;;;4.22;1.92;;;11.60;99.90;;;;;;5010677;28;20078;-78
2022/05/13 01:04:16;;;;;;;3.28;1.90;;;11.60;99.90;;;;;;5011719;28;20050;-78
2022/05/13 01:06:47;;;;;;;3.92;2.00;;;11.60;99.90;;;;;;4994207;28;20778;-77
2022/05/13 01:09:12;;;;;;;3.05;2.00;;;11.50;99.90;;;;;;5012074;28;20089;-78
2022/05/13 01:11:40;;;;;;;4.25;2.20;;;11.40;99.90;;;;;;5009694;28;20081;-78
2022/05/13 01:14:09;;;;;;;6.90;2.10;;;11.30;99.90;;;;;;5011706;28;20061;-78
2022/05/13 01:19:20;;;;;;;6.03;1.90;;;11.30;99.90;;;;;;5011672;28;20545;-78
2022/05/13 01:21:49;;;;;;;4.53;1.98;;;11.20;99.90;;;;;;4988725;28;20050;-78
2022/05/13 01:24:20;;;;;;;6.03;2.30;;;11.10;99.90;;;;;;4995293;28;20045;-78
2022/05/13 01:26:46;;;;;;;3.28;1.88;;;11.00;99.90;;;;;;4994286;28;20057;-78
2022/05/13 01:29:11;;;;;;;4.05;2.58;;;10.90;99.90;;;;;;4991751;28;20047;-78
2022/05/13 01:31:39;;;;;;;4.15;2.15;;;10.90;99.90;;;;;;4990973;28;20046;-81
2022/05/13 01:34:10;;;;;;;6.35;1.88;;;10.80;99.90;;;;;;4991339;28;20042;-78
2022/05/13 01:36:38;;;;;;;3.05;2.08;;;10.90;99.90;;;;;;4989677;28;20049;-77
2022/05/13 01:39:04;;;;;;;4.82;1.80;;;10.90;99.90;;;;;;4998025;28;20054;-78
2022/05/13 01:41:31;;;;;;;5.05;2.15;;;10.90;99.90;;;;;;4991138;28;20090;-78
2022/05/13 01:43:57;;;;;;;5.05;2.03;;;10.90;99.90;;;;;;4992864;28;20050;-78
2022/05/13 01:46:24;;;;;;;5.97;2.20;;;11.00;99.90;;;;;;5011055;28;20104;-78
2022/05/13 01:48:50;;;;;;;;;;;11.00;99.90;;;;;;5011030;28;20100;-78
2022/05/13 01:51:16;;;;;;;4.45;2.08;;;11.10;99.90;;;;;;5009958;28;19944;-78
2022/05/13 01:53:42;;;;;;;3.80;2.17;;;11.10;99.90;;;;;;5010333;28;20050;-79
2022/05/13 01:56:08;;;;;;;;;;;11.00;99.90;;;;;;5010323;28;20042;-78
2022/05/13 01:58:34;;;;;;;3.33;1.70;;;11.00;99.90;;;;;;5010340;28;19932;-78
2022/05/13 02:01:03;;;;;;;3.55;1.90;;;11.00;99.90;;;;;;5010134;28;20690;-78
2022/05/13 02:03:44;;;;;;;4.28;1.90;;;11.00;99.90;;;;;;5007778;28;20058;-78
2022/05/13 02:06:11;;;;;;;7.80;2.13;;;11.00;99.90;;;;;;5010121;28;20562;-78
2022/05/13 02:08:37;;;;;;;6.30;2.08;;;11.00;99.90;;;;;;5007995;28;20112;-78
2022/05/13 02:11:03;;;;;;;3.88;1.92;;;11.00;99.90;;;;;;4989564;28;20085;-78
2022/05/13 02:13:29;;;;;;;4.63;1.80;;;11.00;99.90;;;;;;4990458;28;20058;-78
2022/05/13 02:15:55;;;;;;;5.47;1.90;;;11.00;99.90;;;;;;4990351;28;20057;-78
2022/05/13 02:18:21;;;;;;;3.63;1.90;;;11.00;99.90;;;;;;4985220;28;20054;-78
2022/05/13 02:20:48;;;;;;;4.80;1.70;;;11.00;99.90;;;;;;5009380;28;20060;-78
2022/05/13 02:23:14;;;;;;;3.70;1.80;;;11.00;99.90;;;;;;5009759;28;20060;-78
2022/05/13 02:25:40;;;;;;;6.82;1.95;;;11.00;99.90;;;;;;5009320;28;20100;-78
2022/05/13 02:28:06;;;;;;;5.13;2.00;;;11.00;99.90;;;;;;5001728;28;20081;-78
2022/05/13 02:30:32;;;;;;;7.10;1.80;;;11.20;99.90;;;;;;4990739;28;20395;-78
2022/05/13 02:32:58;;;;;;;6.28;1.73;;;11.00;99.90;;;;;;4990120;28;20479;-78
2022/05/13 02:35:24;;;;;;;6.63;1.90;;;11.00;99.90;;;;;;4989858;28;20070;-78
2022/05/13 02:37:52;;;;;;;;;;;11.00;99.90;;;;;;5004660;28;20104;-78
2022/05/13 02:40:18;;;;;;;3.30;1.80;;;10.90;99.90;;;;;;5010065;28;19932;-79
2022/05/13 02:42:44;;;;;;;3.08;1.65;;;10.90;99.90;;;;;;4992509;28;20049;-78
2022/05/13 02:45:10;;;;;;;3.15;1.80;;;10.90;99.90;;;;;;5009749;28;20053;-78
2022/05/13 02:47:40;;;;;;;4.57;1.98;;;10.90;99.90;;;;;;4990385;28;20101;-78
2022/05/13 02:50:21;;;;;;;4.93;1.80;;;10.90;99.90;;;;;;4988785;28;20048;-78
2022/05/13 02:52:47;;;;;;;3.13;1.67;;;10.80;99.90;;;;;;5008943;28;20107;-81
2022/05/13 02:55:13;;;;;;;4.90;1.77;;;10.80;99.90;;;;;;5009626;28;20057;-79
2022/05/13 02:57:39;;;;;;;5.10;1.75;;;10.70;99.90;;;;;;5008571;28;20046;-78
2022/05/13 03:00:07;;;;;;;4.40;1.77;;;10.60;99.90;;;;;;5009344;28;20050;-78
2022/05/13 03:02:33;;;;;;;5.32;1.85;;;10.60;99.90;;;;;;5009770;28;20077;-78
2022/05/13 03:04:58;;;;;;;;;;;10.60;99.90;;;;;;5009464;28;20054;-80
2022/05/13 03:07:24;;;;;;;4.97;1.70;;;10.60;99.90;;;;;;5009432;28;19947;-78
2022/05/13 03:09:50;;;;;;;10.32;1.83;;;10.60;99.90;;;;;;5009423;28;20058;-80
2022/05/13 03:12:17;;;;;;;4.40;1.80;;;10.60;99.90;;;;;;5008407;28;20057;-78
2022/05/13 03:14:43;;;;;;;2.70;1.50;;;10.60;99.90;;;;;;5009389;28;20120;-78
2022/05/13 03:17:08;;;;;;;2.75;1.60;;;10.50;99.90;;;;;;4992307;28;20088;-79
2022/05/13 03:19:36;;;;;;;6.22;1.60;;;10.40;99.90;;;;;;5009930;28;20073;-78
2022/05/13 03:22:03;;;;;;;2.90;1.63;;;10.40;99.90;;;;;;4978682;28;20519;-78
2022/05/13 03:24:28;;;;;;;5.18;1.85;;;10.30;99.90;;;;;;4973871;28;20058;-78
2022/05/13 03:26:54;;;;;;;5.70;1.50;;;10.20;99.90;;;;;;4988352;28;20043;-78
2022/05/13 03:29:20;;;;;;;4.18;1.80;;;10.10;99.90;;;;;;4990096;28;20062;-78
2022/05/13 03:31:46;;;;;;;5.18;1.60;;;10.10;99.90;;;;;;4989926;28;20046;-77
2022/05/13 03:34:12;;;;;;;;;;;10.10;99.90;;;;;;4990072;28;20587;-79
2022/05/13 03:36:38;;;;;;;8.02;1.80;;;10.10;99.90;;;;;;4990937;28;19979;-77
2022/05/13 03:39:04;;;;;;;3.30;1.92;;;10.10;99.90;;;;;;4997720;28;20159;-78
2022/05/13 03:41:30;;;;;;;;;;;10.30;99.90;;;;;;5008747;28;20468;-78
2022/05/13 03:43:55;;;;;;;7.95;1.80;;;10.00;99.90;;;;;;5008743;28;19921;-77
2022/05/13 03:46:21;;;;;;;5.82;1.67;;;10.30;99.90;;;;;;5009385;28;20038;-78
2022/05/13 03:48:47;;;;;;;6.80;1.80;;;10.20;99.90;;;;;;4992292;28;20419;-78
2022/05/13 03:51:13;;;;;;;5.88;1.55;;;10.20;99.90;;;;;;4988519;28;20046;-78
2022/05/13 03:53:38;;;;;;;7.40;1.80;;;10.30;99.90;;;;;;4973607;28;20046;-78
2022/05/13 03:56:05;;;;;;;3.33;1.67;;;10.30;99.90;;;;;;4988190;28;20050;-78
2022/05/13 03:58:31;;;;;;;;;;;10.30;99.90;;;;;;4989859;28;20188;-78
2022/05/13 04:00:56;;;;;;;6.57;1.95;;;10.40;99.90;;;;;;4974916;28;20008;-78
2022/05/13 04:03:22;;;;;;;4.20;1.63;;;10.40;99.90;;;;;;4993619;28;20100;-78
2022/05/13 04:11:17;;;;;;;3.97;1.75;;;10.40;99.90;;;;;;5011273;28;20053;-78
2022/05/13 04:16:26;;;;;;;6.35;1.90;;;10.50;99.90;;;;;;4992975;28;20108;-77
2022/05/13 04:18:53;;;;;;;4.30;1.85;;;10.50;99.90;;;;;;4994657;28;20050;-78
2022/05/13 04:21:24;;;;;;;5.97;1.85;;;10.70;99.90;;;;;;4991602;28;20129;-78
2022/05/13 04:23:53;;;;;;;8.07;2.40;;;10.60;99.90;;;;;;4994425;28;20058;-77
2022/05/13 04:26:19;;;;;;;2.90;1.63;;;10.60;99.90;;;;;;4995036;28;20112;-78
2022/05/13 04:28:48;;;;;;;9.52;1.80;;;10.70;99.90;;;;;;5009943;28;20137;-78
2022/05/13 04:31:17;;;;;;;6.35;1.90;;;10.70;99.90;;;;;;4976213;28;20503;-78
2022/05/13 04:33:43;;;;;;;11.05;1.90;;;10.70;99.90;;;;;;4992855;28;20046;-78
2022/05/13 04:36:09;;;;;;;5.00;1.98;;;10.70;99.90;;;;;;4991504;28;20057;-78
2022/05/13 04:38:35;;;;;;;5.03;1.80;;;10.70;99.90;;;;;;4985404;28;20058;-78
2022/05/13 04:43:47;;;;;;;8.50;2.20;;;10.70;99.90;;;;;;4992333;28;20065;-78
2022/05/13 04:46:13;;;;;;;;;;;10.80;99.90;;;;;;4992522;28;20050;-78
2022/05/13 04:48:39;;;;;;;5.60;1.55;;;10.80;99.90;;;;;;5004922;28;19971;-78
2022/05/13 04:51:04;;;;;;;16.50;2.42;;;10.80;99.90;;;;;;5005787;28;20045;-78
2022/05/13 04:53:33;;;;;;;9.25;2.28;;;10.90;99.90;;;;;;5008298;28;20160;-79
2022/05/13 04:56:00;;;;;;;6.82;1.90;;;10.90;99.90;;;;;;4991187;28;20054;-81
2022/05/13 04:58:27;;;;;;;8.38;2.20;;;10.90;99.90;;;;;;4992039;28;20129;-78
2022/05/13 05:00:55;;;;;;;7.60;2.50;;;11.00;99.90;;;;;;5002163;28;20514;-79
2022/05/13 05:03:24;;;;;;;7.90;2.53;;;11.00;99.90;;;;;;5011412;28;20384;-77
2022/05/13 05:05:50;;;;;;;4.80;1.92;;;11.00;99.90;;;;;;4994383;28;20129;-78
2022/05/13 05:08:16;;;;;;;11.55;2.38;;;11.00;99.90;;;;;;4975232;28;20073;-78
2022/05/13 05:10:43;;;;;;;7.97;2.03;;;11.00;99.90;;;;;;4992081;28;20101;-78
2022/05/13 05:13:10;;;;;;;11.70;2.45;;;11.10;99.90;;;;;;5006660;28;20096;-78
2022/05/13 05:15:40;;;;;;;9.70;2.30;;;11.10;99.90;;;;;;4994911;28;20483;-78
2022/05/13 05:18:06;;;;;;;5.15;1.98;;;11.10;99.90;;;;;;5011314;28;20041;-77
2022/05/13 05:20:31;;;;;;;9.85;2.25;;;11.20;99.90;;;;;;4994505;28;20060;-78
2022/05/13 05:22:58;;;;;;;5.15;2.00;;;11.20;99.90;;;;;;5010763;28;20130;-79
2022/05/13 05:25:28;;;;;;;11.15;2.95;;;11.30;99.90;;;;;;5010892;28;20515;-78
2022/05/13 05:27:55;;;;;;;3.83;2.10;;;11.20;99.90;;;;;;5001728;28;20129;-78
2022/05/13 05:30:21;;;;;;;6.10;2.47;;;11.30;99.90;;;;;;5000327;28;20593;-77
2022/05/13 05:32:47;;;;;;;9.30;2.60;;;11.30;99.90;;;;;;5011453;28;20041;-78
2022/05/13 05:35:15;;;;;;;6.88;2.20;;;11.30;99.90;;;;;;5010104;28;20049;-78
2022/05/13 05:37:41;;;;;;;6.30;1.80;;;11.30;99.90;;;;;;4991297;28;20054;-78
2022/05/13 05:40:09;;;;;;;10.57;3.03;;;11.50;99.90;;;;;;4991296;28;20054;-78
2022/05/13 05:42:36;;;;;;;9.52;2.45;;;11.50;99.90;;;;;;4990229;28;20050;-78
2022/05/13 05:45:02;;;;;;;6.75;2.30;;;11.50;99.90;;;;;;4996363;28;20061;-80
2022/05/13 05:47:28;;;;;;;12.30;2.92;;;11.60;99.90;;;;;;5008588;28;20057;-78
2022/05/13 05:49:53;;;;;;;9.00;2.83;;;11.60;99.90;;;;;;4975636;28;20623;-79
2022/05/13 05:52:19;;;;;;;10.70;2.58;;;11.70;99.90;;;;;;5009777;28;20158;-78
2022/05/13 05:57:29;;;;;;;8.88;2.80;;;11.70;99.90;;;;;;5009429;28;20124;-78
2022/05/13 05:59:55;;;;;;;10.02;2.50;;;11.80;99.90;;;;;;5010771;28;20483;-78
2022/05/13 06:02:20;;;;;;;9.73;2.72;;;11.80;99.90;;;;;;5010326;28;20054;-78
2022/05/13 06:04:46;;;;;;;5.65;2.28;;;11.80;99.90;;;;;;5010940;28;20050;-78
2022/05/13 06:07:15;;;;;;;17.52;3.97;;;11.80;99.90;;;;;;4992759;28;20049;-79
2022/05/13 06:09:43;;;;;;;8.98;3.10;;;11.80;99.90;;;;;;5010454;28;20056;-79
2022/05/13 06:12:11;;;;;;;11.10;3.03;;;11.90;99.90;;;;;;5008080;28;20076;-79
2022/05/13 06:14:37;;;;;;;6.55;2.45;;;12.00;99.90;;;;;;5006929;28;20042;-78
2022/05/13 06:17:03;;;;;;;7.85;2.78;;;12.10;99.90;;;;;;4990867;28;20676;-79
2022/05/13 06:19:29;;;;;;;12.50;2.58;;;12.20;99.90;;;;;;4996375;28;20403;-79
2022/05/13 06:21:55;;;;;;;15.52;3.13;;;12.30;99.90;;;;;;5009495;28;20125;-79
2022/05/13 06:24:21;;;;;;;9.10;3.25;;;12.30;99.90;;;;;;4993554;28;20056;-80
2022/05/13 06:26:49;;;;;;;9.90;2.45;;;12.50;99.90;;;;;;4992742;28;20060;-79
2022/05/13 06:29:21;;;;;;;11.27;2.75;;;12.60;99.90;;;;;;5009911;28;20045;-79
2022/05/13 06:31:47;;;;;;;10.75;3.10;;;12.80;99.90;;;;;;5007878;28;20104;-79
2022/05/13 06:34:14;;;;;;;13.07;2.80;;;13.00;99.90;;;;;;5009446;28;20610;-79
2022/05/13 06:36:40;;;;;;;10.30;2.80;;;13.10;99.90;;;;;;5002210;28;20074;-78
2022/05/13 06:39:07;;;;;;;;;;;13.20;99.90;;;;;;4990473;28;20778;-79
2022/05/13 06:41:37;;;;;;;5.72;2.40;;;13.30;99.90;;;;;;4955846;28;19944;-79
2022/05/13 06:44:05;;;;;;;5.00;2.60;;;13.30;99.90;;;;;;5004392;28;20050;-79
2022/05/13 06:46:30;;;;;;;9.10;2.20;;;13.40;99.90;;;;;;5008732;28;20059;-79
2022/05/13 06:48:58;;;;;;;8.32;2.22;;;13.40;99.90;;;;;;5009775;28;20133;-78
2022/05/13 06:51:24;;;;;;;6.57;1.77;;;13.50;99.90;;;;;;5008434;28;20045;-79
2022/05/13 06:53:50;;;;;;;11.50;2.00;;;13.60;99.90;;;;;;4992527;28;20121;-79
2022/05/13 06:56:16;;;;;;;8.95;2.60;;;13.60;99.90;;;;;;5007467;28;20076;-79
2022/05/13 06:58:42;;;;;;;6.72;1.95;;;13.60;99.90;;;;;;5008967;28;20073;-79
2022/05/13 07:01:07;;;;;;;9.10;2.65;;;13.60;99.90;;;;;;4992522;28;20128;-80
2022/05/13 07:03:33;;;;;;;3.95;2.08;;;13.70;99.90;;;;;;5008780;28;21060;-79
2022/05/13 07:06:00;;;;;;;8.50;2.15;;;13.70;99.90;;;;;;5004784;28;20129;-77
2022/05/13 07:08:25;;;;;;;5.20;1.70;;;13.70;99.90;;;;;;4990046;28;20388;-79
2022/05/13 07:10:51;;;;;;;8.77;1.70;;;13.70;99.90;;;;;;5008616;28;20108;-79
2022/05/13 07:13:17;;;;;;;5.20;1.92;;;13.80;99.90;;;;;;5008732;28;20046;-79
2022/05/13 07:15:43;;;;;;;4.90;1.90;;;13.80;99.90;;;;;;5009129;28;20058;-80
2022/05/13 07:18:09;;;;;;;;;;;13.80;99.90;;;;;;5009858;28;20042;-79
2022/05/13 07:20:35;;;;;;;6.28;2.20;;;13.80;99.90;;;;;;5008348;28;19917;-79
2022/05/13 07:23:01;;;;;;;;;;;13.90;99.90;;;;;;4991687;28;20078;-79
2022/05/13 07:25:27;;;;;;;9.98;1.70;;;13.90;99.90;;;;;;4989072;28;20429;-81
2022/05/13 07:27:53;;;;;;;4.10;1.67;;;13.90;99.90;;;;;;4992914;28;20050;-79
2022/05/13 07:30:20;;;;;;;4.22;1.73;;;13.90;99.90;;;;;;5008985;28;20061;-79
2022/05/13 07:32:45;;;;;;;4.93;1.63;;;13.90;99.90;;;;;;5009725;28;20428;-80
2022/05/13 07:35:11;;;;;;;3.40;1.77;;;13.90;99.90;;;;;;5009724;28;20128;-79
2022/05/13 07:37:37;;;;;;;8.98;2.08;;;13.90;99.90;;;;;;4980460;28;20053;-79
2022/05/13 07:42:49;;;;;;;6.47;2.30;;;13.90;99.90;;;;;;4992585;28;20061;-79
2022/05/13 07:45:15;;;;;;;6.72;2.35;;;14.00;99.90;;;;;;4998830;28;20053;-79
2022/05/13 07:47:42;;;;;;;7.38;2.03;;;14.00;99.90;;;;;;5012923;28;20081;-80
2022/05/13 07:50:11;;;;;;;8.15;2.20;;;14.00;99.90;;;;;;5012609;28;20042;-80
2022/05/13 07:52:40;;;;;;;4.35;1.90;;;14.10;99.90;;;;;;5012545;28;20125;-80
2022/05/13 07:55:11;;;;;;;6.85;1.63;;;14.30;99.90;;;;;;4996782;28;20054;-80
2022/05/13 07:57:40;;;;;;;4.30;1.88;;;14.40;99.90;;;;;;5010521;28;20054;-81
2022/05/13 08:00:26;;;;;;;4.47;1.65;;;14.40;99.90;;;;;;5012515;28;20128;-80
2022/05/13 08:02:58;;;;;;;6.10;1.90;;;14.50;99.90;;;;;;5009452;28;20128;-79
2022/05/13 08:05:26;;;;;;;5.47;1.88;;;14.60;99.90;;;;;;5005060;28;20691;-79
2022/05/13 08:08:07;;;;;;;5.30;1.58;;;14.70;99.90;;;;;;4993078;28;20061;-80
2022/05/13 08:10:34;;;;;;;3.20;1.80;;;14.70;99.90;;;;;;4991978;28;20046;-80
2022/05/13 08:13:00;;;;;;;5.03;1.40;;;14.70;99.90;;;;;;5007574;28;20107;-80
2022/05/13 08:15:27;;;;;;;5.50;1.77;;;14.70;99.90;;;;;;5012059;28;20042;-80
2022/05/13 08:17:53;;;;;;;4.32;1.60;;;14.70;99.90;;;;;;5009612;28;20053;-81
2022/05/13 08:20:19;;;;;;;3.03;1.40;;;14.70;99.90;;;;;;5014027;28;20116;-82
2022/05/13 08:22:45;;;;;;;2.72;1.45;;;14.80;99.90;;;;;;5002566;28;20052;-80
2022/05/13 08:25:12;;;;;;;3.05;1.10;;;14.90;99.90;;;;;;4965963;28;20042;-80
2022/05/13 08:27:37;;;;;;;1.83;1.50;;;14.90;99.90;;;;;;5000301;28;20379;-80
2022/05/13 08:30:05;;;;;;;5.43;1.17;;;15.10;99.90;;;;;;5007131;28;21012;-80
2022/05/13 08:32:31;;;;;;;4.05;1.33;;;15.10;99.90;;;;;;4995556;28;20089;-80
2022/05/13 08:34:57;;;;;;;;;;;15.00;99.90;;;;;;5005589;28;20053;-80
2022/05/13 08:37:22;;;;;;;2.10;0.90;;;15.10;99.90;;;;;;4999479;28;19929;-83
2022/05/13 08:39:49;;;;;;;3.97;1.27;;;15.10;99.90;;;;;;4979337;28;20066;-79
2022/05/13 08:42:28;;;;;;;2.13;1.00;;;15.10;99.90;;;;;;4990734;28;20121;-80
2022/05/13 08:44:54;;;;;;;1.33;1.02;;;15.10;99.90;;;;;;4976419;28;20096;-80
2022/05/13 08:47:35;;;;;;;2.50;0.80;;;15.10;99.90;;;;;;4995640;28;20511;-79
2022/05/13 08:50:09;;;;;;;1.90;0.90;;;15.10;99.90;;;;;;5000915;28;20060;-80
2022/05/13 08:55:26;;;;;;;1.58;1.00;;;15.10;99.90;;;;;;5006488;28;20547;-78
2022/05/13 08:57:55;;;;;;;2.00;1.00;;;15.10;99.90;;;;;;5011645;28;20065;-78
2022/05/13 09:00:23;;;;;;;2.97;1.02;;;15.10;99.90;;;;;;4991856;28;20050;-79
2022/05/13 09:03:23;;;;;;;3.85;1.02;;;15.20;99.90;;;;;;4987552;28;20065;-79
2022/05/13 09:05:55;;;;;;;3.00;0.90;;;15.40;99.90;;;;;;5009187;28;20054;-79
2022/05/13 09:08:22;;;;;;;2.30;1.10;;;15.60;99.90;;;;;;5006150;28;20045;-79
2022/05/13 09:11:22;;;;;;;3.17;0.90;;;15.80;99.90;;;;;;5010188;28;20115;-80
2022/05/13 09:14:08;;;;;;;8.85;1.60;;;16.00;99.90;;;;;;5007478;28;20510;-78
2022/05/13 09:17:05;;;;;;;5.07;1.27;;;15.80;99.90;;;;;;5002463;28;20404;-79
2022/05/13 09:19:33;;;;;;;1.83;0.90;;;15.60;99.90;;;;;;4991136;28;20443;-79
2022/05/13 09:21:59;;;;;;;4.90;0.90;;;15.50;99.90;;;;;;4977748;28;20065;-78
2022/05/13 09:24:25;;;;;;;3.10;1.00;;;15.40;99.90;;;;;;4995131;28;20133;-80
2022/05/13 09:26:51;;;;;;;3.97;0.95;;;15.40;99.90;;;;;;4993272;28;20054;-79
2022/05/13 09:29:18;;;;;;;3.92;0.80;;;15.50;99.90;;;;;;5011167;28;20108;-78
2022/05/13 09:31:44;;;;;;;5.85;1.30;;;15.70;99.90;;;;;;5001581;28;20059;-78
2022/05/13 09:34:29;;;;;;;2.63;0.80;;;15.90;99.90;;;;;;4998128;28;20419;-78
2022/05/13 09:37:05;;;;;;;5.45;1.23;;;16.00;99.90;;;;;;5005994;28;20387;-78
2022/05/13 09:39:39;;;;;;;1.77;1.00;;;16.00;99.90;;;;;;4992313;28;20058;-77
2022/05/13 09:42:26;;;;;;;1.60;1.00;;;15.90;99.90;;;;;;5009466;28;20049;-78
2022/05/13 09:45:21;;;;;;;2.42;0.95;;;15.90;99.90;;;;;;5010573;28;20063;-78
2022/05/13 09:47:58;;;;;;;4.03;1.20;;;16.00;99.90;;;;;;5010471;28;20159;-78
2022/05/13 09:50:27;;;;;;;1.77;1.02;;;16.10;99.90;;;;;;4994281;28;20133;-78
2022/05/13 09:53:00;;;;;;;1.88;1.00;;;16.20;99.90;;;;;;5010111;28;20053;-78
2022/05/13 09:55:32;;;;;;;2.53;1.10;;;16.30;99.90;;;;;;5009374;28;20128;-81
2022/05/13 09:58:01;;;;;;;2.90;1.33;;;16.20;99.90;;;;;;5005453;28;20061;-78
2022/05/13 10:00:35;;;;;;;1.60;1.00;;;16.10;99.90;;;;;;5026940;28;20060;-78
2022/05/13 10:03:25;;;;;;;3.97;1.10;;;15.90;99.90;;;;;;5003933;28;20060;-78
2022/05/13 10:06:15;;;;;;;8.00;1.63;;;15.80;99.90;;;;;;4983424;28;20543;-78
2022/05/13 10:13:57;;;;;;;2.50;1.20;;;15.80;99.90;;;;;;4999387;28;20058;-78
2022/05/13 10:14:32;;;;;;;0.70;0.70;;;15.70;99.90;;;;;;5004229;28;20050;-80
2022/05/13 10:17:12;;;;;;;3.28;1.00;;;15.60;99.90;;;;;;4991662;28;20473;-78
2022/05/13 10:19:55;;;;;;;5.75;0.95;;;15.60;99.90;;;;;;4996779;28;20057;-77
2022/05/13 10:22:32;;;;;;;5.68;1.10;;;15.50;99.90;;;;;;5009377;28;20057;-79
2022/05/13 10:25:16;;;;;;;5.68;0.80;;;15.60;99.90;;;;;;4993507;28;20053;-79
2022/05/13 10:27:54;;;;;;;2.65;1.30;;;15.80;99.90;;;;;;5003094;28;20108;-78
2022/05/13 10:30:39;;;;;;;2.25;1.13;;;15.90;99.90;;;;;;4979726;28;20050;-78
2022/05/13 10:33:41;;;;;;;2.55;1.23;;;16.10;99.90;;;;;;5006046;28;20050;-80
2022/05/13 10:36:22;;;;;;;7.32;3.53;;;16.40;99.90;;;;;;4966070;28;20054;-79
2022/05/13 10:38:58;;;;;;;2.92;1.35;;;16.50;99.90;;;;;;4991765;28;20054;-79
2022/05/13 10:41:45;;;;;;;4.25;1.23;;;16.60;99.90;;;;;;4992879;28;20042;-80
2022/05/13 10:44:27;;;;;;;;;;;16.90;99.90;;;;;;4989728;28;20048;-80
2022/05/13 10:47:02;;;;;;;2.17;0.77;;;17.00;96.00;;;;;;4999387;28;19925;-79
2022/05/13 10:49:34;;;;;;;2.23;1.07;;;17.10;95.70;;;;;;5009917;28;20133;-80
2022/05/13 10:52:21;;;;;;;1.92;1.00;;;17.10;93.10;;;;;;5008895;28;20052;-80
2022/05/13 10:54:53;;;;;;;4.75;0.95;;;17.00;93.80;;;;;;5009552;28;20461;-80
2022/05/13 10:57:46;;;;;;;5.30;0.90;;;16.90;92.50;;;;;;5008671;28;20116;-79
2022/05/13 11:00:30;;;;;;;3.47;1.30;;;16.80;92.30;;;;;;4989712;28;20064;-80
2022/05/13 11:03:32;;;;;;;1.80;0.98;;;16.90;94.50;;;;;;4979777;28;20120;-77
2022/05/13 11:06:19;;;;;;;2.17;1.40;;;17.00;91.90;;;;;;4991875;28;20089;-78
2022/05/13 11:08:51;;;;;;;1.88;1.38;;;17.10;93.30;;;;;;4989528;28;20090;-78
2022/05/13 11:11:39;;;;;;;5.30;1.50;;;17.20;92.20;;;;;;4988360;28;20107;-78
2022/05/13 11:14:35;;;;;;;3.90;1.77;;;17.20;94.60;;;;;;4994244;28;20057;-78
2022/05/13 11:17:22;;;;;;;2.33;1.25;;;17.20;90.20;;;;;;4976542;28;20093;-77
2022/05/13 11:20:16;;;;;;;1.55;1.13;;;17.20;91.50;;;;;;4989603;28;20050;-78
2022/05/13 11:22:46;;;;;;;2.72;1.33;;;17.40;92.40;;;;;;4988820;28;20054;-79
2022/05/13 11:28:27;;;;;;;3.25;1.92;;;17.60;91.40;;;;;;4989575;28;20054;-78
2022/05/13 11:31:22;;;;;;;2.72;1.40;;;17.50;92.10;;;;;;5000328;28;20052;-78
2022/05/13 11:34:23;;;;;;;1.17;0.93;;;17.60;94.30;;;;;;5005241;28;20514;-78
2022/05/13 11:36:53;;;;;;;5.90;1.13;;;17.80;90.70;;;;;;5003039;28;20050;-77
2022/05/13 11:39:25;;;;;;;3.30;1.30;;;17.80;86.50;;;;;;4989532;28;20462;-76
2022/05/13 11:42:14;;;;;;;4.15;1.27;;;17.80;89.30;;;;;;4995372;28;20155;-75
2022/05/13 11:44:57;;;;;;;2.45;1.52;;;17.90;84.60;;;;;;5001148;28;20419;-76
2022/05/13 11:47:58;;;;;;;3.95;1.13;;;17.80;81.50;;;;;;4978460;28;20085;-77
2022/05/13 11:50:26;;;;;;;4.97;1.40;;;17.70;83.90;;;;;;4992857;28;20129;-76
2022/05/13 11:52:53;;;;;;;3.40;1.40;;;17.80;83.00;;;;;;4997479;28;20050;-77
2022/05/13 11:55:31;;;;;;;1.30;1.20;;;17.90;83.40;;;;;;5000465;28;20139;-74
2022/05/13 11:57:57;;;;;;;3.28;1.40;;;18.00;81.00;;;;;;4995878;28;20610;-76
2022/05/13 12:00:34;;;;;;;2.25;1.38;;;18.10;82.80;;;;;;4995565;28;20132;-76
2022/05/13 12:03:09;;;;;;;3.38;1.52;;;18.20;81.20;;;;;;4976668;28;20101;-75
2022/05/13 12:06:01;;;;;;;4.53;1.35;;;18.10;81.30;;;;;;4991096;28;20081;-75
2022/05/13 12:08:36;;;;;;;5.28;1.70;;;18.00;82.10;;;;;;5000396;28;20480;-76
2022/05/13 12:11:02;;;;;;;3.85;1.50;;;17.90;84.20;;;;;;4991242;28;20046;-75
2022/05/13 12:14:01;;;;;;;3.67;1.25;;;17.80;83.50;;;;;;4989319;28;20375;-74
2022/05/13 12:16:45;;;;;;;4.53;1.17;;;17.70;80.30;;;;;;5004363;28;20046;-75
2022/05/13 12:19:32;;;;;;;5.50;1.15;;;17.70;79.10;;;;;;4991790;28;20050;-76
2022/05/13 12:22:31;;;;;;;3.28;1.27;;;17.70;80.10;;;;;;5000193;28;20124;-75
2022/05/13 12:25:29;;;;;;;4.70;1.17;;;17.80;79.70;;;;;;5009285;28;20061;-75
2022/05/13 12:28:05;;;;;;;4.10;1.23;;;17.60;80.00;;;;;;5005900;28;20061;-75
2022/05/13 12:30:34;;;;;;;2.45;1.25;;;17.50;81.10;;;;;;5005646;28;20057;-75
2022/05/13 12:33:29;;;;;;;3.08;1.10;;;17.70;83.30;;;;;;5006105;28;20114;-75
2022/05/13 12:39:04;;;;;;;1.85;1.42;;;17.90;82.00;;;;;;5011010;28;20537;-76
2022/05/13 12:41:53;;;;;;;3.42;1.40;;;17.70;81.20;;;;;;5000140;28;20129;-76
2022/05/13 12:44:31;;;;;;;2.70;1.15;;;17.80;81.00;;;;;;4997218;28;20058;-75
2022/05/13 12:47:20;;;;;;;2.55;1.15;;;17.80;81.30;;;;;;5005215;28;20062;-75
2022/05/13 12:49:49;;;;;;;1.13;0.70;;;18.20;80.70;;;;;;5006738;28;20045;-75
2022/05/13 12:52:22;;;;;;;3.53;1.15;;;18.70;77.20;;;;;;5004772;28;20050;-76
2022/05/13 12:55:07;;;;;;;6.82;1.50;;;18.90;75.40;;;;;;4995860;28;20050;-75
2022/05/13 12:57:59;;;;;;;2.25;1.13;;;18.80;72.10;;;;;;5005643;28;20058;-73
2022/05/13 13:00:35;;;;;;;3.95;1.08;;;18.60;73.30;;;;;;5006184;28;20538;-72
2022/05/13 13:03:06;;;;;;;2.42;0.95;;;18.60;73.80;;;;;;5008439;28;20050;-72
2022/05/13 13:05:34;;;;;;;4.50;1.08;;;18.60;72.50;;;;;;4989455;28;20053;-72
2022/05/13 13:08:13;;;;;;;7.28;1.00;;;18.80;71.00;;;;;;5006204;28;20065;-72
2022/05/13 13:11:04;;;;;;;4.78;1.10;;;18.90;71.30;;;;;;4991417;28;20053;-72
2022/05/13 13:13:56;;;;;;;3.13;1.00;;;19.20;71.40;;;;;;5003421;28;20403;-72
2022/05/13 13:16:37;;;;;;;2.22;0.80;;;19.40;70.80;;;;;;5011227;28;20550;-72
2022/05/13 13:19:17;;;;;;;2.85;1.02;;;19.50;69.90;;;;;;5011419;28;20057;-74
2022/05/13 13:21:43;;;;;;;3.40;0.82;;;19.50;68.00;;;;;;4994260;28;20123;-72
2022/05/13 13:24:15;;;;;;;5.03;0.80;;;19.40;67.60;;;;;;5011259;28;20058;-72
2022/05/13 13:26:45;;;;;;;2.53;1.02;;;19.40;65.80;;;;;;5010011;28;20115;-72
2022/05/13 13:29:11;;;;;;;3.83;1.15;;;19.10;66.10;;;;;;5010823;28;20136;-73
2022/05/13 13:31:39;;;;;;;;;;;19.00;66.20;;;;;;5006285;28;20054;-72
2022/05/13 13:34:05;;;;;;;2.17;1.00;;;18.80;66.50;;;;;;4994984;28;19975;-72
2022/05/13 13:36:33;;;;;;;1.60;0.80;;;18.70;68.20;;;;;;4988101;28;20061;-72
2022/05/13 13:39:00;;;;;;;2.15;1.08;;;18.80;68.60;;;;;;4990873;28;20488;-72
2022/05/13 13:41:34;;;;;;;4.30;1.00;;;19.10;68.30;;;;;;5009405;28;20061;-72